sensor_id;sensor_type;location;lat;lon;timestamp;temperature;humidity
15113;DHT22;7657;50.140;7.076;2023-07-29T00:01:10;19.00;99.90
15113;DHT22;7657;50.140;7.076;2023-07-29T00:03:37;18.90;99.90
15113;DHT22;7657;50.140;7.076;2023-07-29T00:06:04;18.90;99.90
15113;DHT22;7657;50.140;7.076;2023-07-29T00:08:31;18.90;99.90
15113;DHT22;7657;50.140;7.076;2023-07-29T00:10:58;18.80;99.90
15113;DHT22;7657;50.140;7.076;2023-07-29T00:13:26;18.80;99.90
15113;DHT22;7657;50.140;7.076;2023-07-29T00:15:54;18.80;99.90
15113;DHT22;7657;50.140;7.076;2023-07-29T00:18:21;18.80;99.90
15113;DHT22;7657;50.140;7.076;2023-07-29T00:20:49;18.80;99.90
15113;DHT22;7657;50.140;7.076;2023-07-29T00:23:17;18.80;99.90
15113;DHT22;7657;50.140;7.076;2023-07-29T00:25:45;18.90;99.90
15113;DHT22;7657;50.140;7.076;2023-07-29T00:28:12;18.80;99.90
15113;DHT22;7657;50.140;7.076;2023-07-29T00:30:40;18.80;99.90
15113;DHT22;7657;50.140;7.076;2023-07-29T00:33:07;18.80;99.90
15113;DHT22;7657;50.140;7.076;2023-07-29T00:35:34;18.80;99.90
15113;DHT22;7657;50.140;7.076;2023-07-29T00:38:01;18.80;99.90
15113;DHT22;7657;50.140;7.076;2023-07-29T00:40:29;18.70;99.90
15113;DHT22;7657;50.140;7.076;2023-07-29T00:42:56;18.80;99.90
15113;DHT22;7657;50.140;7.076;2023-07-29T00:45:24;18.80;99.90
15113;DHT22;7657;50.140;7.076;2023-07-29T00:47:53;18.80;99.90
15113;DHT22;7657;50.140;7.076;2023-07-29T00:50:20;18.70;99.90
15113;DHT22;7657;50.140;7.076;2023-07-29T00:52:48;18.70;99.90
15113;DHT22;7657;50.140;7.076;2023-07-29T00:55:16;18.70;99.90
15113;DHT22;7657;50.140;7.076;2023-07-29T00:57:43;18.60;99.90
15113;DHT22;7657;50.140;7.076;2023-07-29T01:00:14;18.60;99.90
15113;DHT22;7657;50.140;7.076;2023-07-29T01:02:42;18.60;99.90
15113;DHT22;7657;50.140;7.076;2023-07-29T01:05:12;18.60;99.90
15113;DHT22;7657;50.140;7.076;2023-07-29T01:07:46;18.70;99.90
15113;DHT22;7657;50.140;7.076;2023-07-29T01:10:20;18.60;99.90
15113;DHT22;7657;50.140;7.076;2023-07-29T01:12:53;18.70;99.90
15113;DHT22;7657;50.140;7.076;2023-07-29T01:15:25;18.70;99.90
15113;DHT22;7657;50.140;7.076;2023-07-29T01:17:54;18.70;99.90
15113;DHT22;7657;50.140;7.076;2023-07-29T01:20:24;18.70;99.90
15113;DHT22;7657;50.140;7.076;2023-07-29T01:22:51;18.70;99.90
15113;DHT22;7657;50.140;7.076;2023-07-29T01:25:20;18.70;99.90
15113;DHT22;7657;50.140;7.076;2023-07-29T01:27:48;18.70;99.90
15113;DHT22;7657;50.140;7.076;2023-07-29T01:30:17;18.70;99.90
15113;DHT22;7657;50.140;7.076;2023-07-29T01:32:50;18.70;99.90
15113;DHT22;7657;50.140;7.076;2023-07-29T01:35:23;18.70;99.90
15113;DHT22;7657;50.140;7.076;2023-07-29T01:37:53;18.70;99.90
15113;DHT22;7657;50.140;7.076;2023-07-29T01:40:27;18.70;99.90
15113;DHT22;7657;50.140;7.076;2023-07-29T01:42:54;18.60;99.90
15113;DHT22;7657;50.140;7.076;2023-07-29T01:45:23;18.70;99.90
15113;DHT22;7657;50.140;7.076;2023-07-29T01:47:51;18.60;99.90
15113;DHT22;7657;50.140;7.076;2023-07-29T01:50:18;18.60;99.90
15113;DHT22;7657;50.140;7.076;2023-07-29T01:52:45;18.60;99.90
15113;DHT22;7657;50.140;7.076;2023-07-29T01:55:12;18.60;99.90
15113;DHT22;7657;50.140;7.076;2023-07-29T01:57:40;18.60;99.90
15113;DHT22;7657;50.140;7.076;2023-07-29T02:00:07;18.60;99.90
15113;DHT22;7657;50.140;7.076;2023-07-29T02:02:35;18.60;99.90
15113;DHT22;7657;50.140;7.076;2023-07-29T02:05:01;18.60;99.90
15113;DHT22;7657;50.140;7.076;2023-07-29T02:07:29;18.60;99.90
15113;DHT22;7657;50.140;7.076;2023-07-29T02:09:55;18.70;99.90
15113;DHT22;7657;50.140;7.076;2023-07-29T02:12:22;18.70;99.90
15113;DHT22;7657;50.140;7.076;2023-07-29T02:14:50;18.70;99.90
15113;DHT22;7657;50.140;7.076;2023-07-29T02:17:17;18.70;99.90
15113;DHT22;7657;50.140;7.076;2023-07-29T02:19:45;18.70;99.90
15113;DHT22;7657;50.140;7.076;2023-07-29T02:22:13;18.70;99.90
15113;DHT22;7657;50.140;7.076;2023-07-29T02:24:40;18.60;99.90
15113;DHT22;7657;50.140;7.076;2023-07-29T02:27:07;18.70;99.90
15113;DHT22;7657;50.140;7.076;2023-07-29T02:29:34;18.60;99.90
15113;DHT22;7657;50.140;7.076;2023-07-29T02:32:03;18.70;99.90
15113;DHT22;7657;50.140;7.076;2023-07-29T02:34:30;18.50;99.90
15113;DHT22;7657;50.140;7.076;2023-07-29T02:36:57;18.50;99.90
15113;DHT22;7657;50.140;7.076;2023-07-29T02:39:24;18.60;99.90
15113;DHT22;7657;50.140;7.076;2023-07-29T02:41:51;18.60;99.90
15113;DHT22;7657;50.140;7.076;2023-07-29T02:44:18;18.60;99.90
15113;DHT22;7657;50.140;7.076;2023-07-29T02:46:45;18.60;99.90
15113;DHT22;7657;50.140;7.076;2023-07-29T02:49:14;18.60;99.90
15113;DHT22;7657;50.140;7.076;2023-07-29T02:51:40;18.60;99.90
15113;DHT22;7657;50.140;7.076;2023-07-29T02:54:07;18.60;99.90
15113;DHT22;7657;50.140;7.076;2023-07-29T02:56:34;18.60;99.90
15113;DHT22;7657;50.140;7.076;2023-07-29T02:59:01;18.60;99.90
15113;DHT22;7657;50.140;7.076;2023-07-29T03:01:28;18.70;99.90
15113;DHT22;7657;50.140;7.076;2023-07-29T03:03:55;18.70;99.90
15113;DHT22;7657;50.140;7.076;2023-07-29T03:06:24;18.70;99.90
15113;DHT22;7657;50.140;7.076;2023-07-29T03:08:50;18.70;99.90
15113;DHT22;7657;50.140;7.076;2023-07-29T03:11:17;18.70;99.90
15113;DHT22;7657;50.140;7.076;2023-07-29T03:13:44;18.70;99.90
15113;DHT22;7657;50.140;7.076;2023-07-29T03:16:12;18.70;99.90
15113;DHT22;7657;50.140;7.076;2023-07-29T03:18:41;18.70;99.90
15113;DHT22;7657;50.140;7.076;2023-07-29T03:21:08;18.70;99.90
15113;DHT22;7657;50.140;7.076;2023-07-29T03:23:37;18.70;99.90
15113;DHT22;7657;50.140;7.076;2023-07-29T03:26:04;18.70;99.90
15113;DHT22;7657;50.140;7.076;2023-07-29T03:28:37;18.70;99.90
15113;DHT22;7657;50.140;7.076;2023-07-29T03:31:04;18.70;99.90
15113;DHT22;7657;50.140;7.076;2023-07-29T03:33:31;18.70;99.90
15113;DHT22;7657;50.140;7.076;2023-07-29T03:35:58;18.80;99.90
15113;DHT22;7657;50.140;7.076;2023-07-29T03:38:25;18.70;99.90
15113;DHT22;7657;50.140;7.076;2023-07-29T03:40:53;18.70;99.90
15113;DHT22;7657;50.140;7.076;2023-07-29T03:43:20;18.70;99.90
15113;DHT22;7657;50.140;7.076;2023-07-29T03:45:47;18.70;99.90
15113;DHT22;7657;50.140;7.076;2023-07-29T03:48:14;18.70;99.90
15113;DHT22;7657;50.140;7.076;2023-07-29T03:50:40;18.70;99.90
15113;DHT22;7657;50.140;7.076;2023-07-29T03:53:07;18.70;99.90
15113;DHT22;7657;50.140;7.076;2023-07-29T03:55:35;18.60;99.90
15113;DHT22;7657;50.140;7.076;2023-07-29T03:58:03;18.50;99.90
15113;DHT22;7657;50.140;7.076;2023-07-29T04:00:30;18.50;99.90
15113;DHT22;7657;50.140;7.076;2023-07-29T04:02:57;18.50;99.90
15113;DHT22;7657;50.140;7.076;2023-07-29T04:05:24;18.50;99.90
15113;DHT22;7657;50.140;7.076;2023-07-29T04:07:51;18.50;99.90
15113;DHT22;7657;50.140;7.076;2023-07-29T04:10:19;18.50;99.90
15113;DHT22;7657;50.140;7.076;2023-07-29T04:12:46;18.50;99.90
15113;DHT22;7657;50.140;7.076;2023-07-29T04:15:14;18.50;99.90
15113;DHT22;7657;50.140;7.076;2023-07-29T04:17:41;18.50;99.90
15113;DHT22;7657;50.140;7.076;2023-07-29T04:20:09;18.40;99.90
15113;DHT22;7657;50.140;7.076;2023-07-29T04:22:36;18.50;99.90
15113;DHT22;7657;50.140;7.076;2023-07-29T04:25:04;18.40;99.90
15113;DHT22;7657;50.140;7.076;2023-07-29T04:27:32;18.40;99.90
15113;DHT22;7657;50.140;7.076;2023-07-29T04:29:58;18.40;99.90
15113;DHT22;7657;50.140;7.076;2023-07-29T04:32:27;18.40;99.90
15113;DHT22;7657;50.140;7.076;2023-07-29T04:34:54;18.40;99.90
15113;DHT22;7657;50.140;7.076;2023-07-29T04:37:20;18.30;99.90
15113;DHT22;7657;50.140;7.076;2023-07-29T04:39:47;18.30;99.90
15113;DHT22;7657;50.140;7.076;2023-07-29T04:42:14;18.30;99.90
15113;DHT22;7657;50.140;7.076;2023-07-29T04:44:41;18.20;99.90
15113;DHT22;7657;50.140;7.076;2023-07-29T04:47:09;18.20;99.90
15113;DHT22;7657;50.140;7.076;2023-07-29T04:49:37;18.20;99.90
15113;DHT22;7657;50.140;7.076;2023-07-29T04:52:05;18.20;99.90
15113;DHT22;7657;50.140;7.076;2023-07-29T04:54:32;18.20;99.90
15113;DHT22;7657;50.140;7.076;2023-07-29T04:56:58;18.20;99.90
15113;DHT22;7657;50.140;7.076;2023-07-29T04:59:25;18.20;99.90
15113;DHT22;7657;50.140;7.076;2023-07-29T05:01:52;18.30;99.90
15113;DHT22;7657;50.140;7.076;2023-07-29T05:04:19;18.30;99.90
15113;DHT22;7657;50.140;7.076;2023-07-29T05:06:47;18.30;99.90
15113;DHT22;7657;50.140;7.076;2023-07-29T05:09:15;18.40;99.90
15113;DHT22;7657;50.140;7.076;2023-07-29T05:11:43;18.40;99.90
15113;DHT22;7657;50.140;7.076;2023-07-29T05:14:11;18.40;99.90
15113;DHT22;7657;50.140;7.076;2023-07-29T05:16:38;18.40;99.90
15113;DHT22;7657;50.140;7.076;2023-07-29T05:19:04;18.40;99.90
15113;DHT22;7657;50.140;7.076;2023-07-29T05:21:31;18.30;99.90
15113;DHT22;7657;50.140;7.076;2023-07-29T05:24:00;18.30;99.90
15113;DHT22;7657;50.140;7.076;2023-07-29T05:26:27;18.40;99.90
15113;DHT22;7657;50.140;7.076;2023-07-29T05:28:53;18.50;99.90
15113;DHT22;7657;50.140;7.076;2023-07-29T05:31:21;18.50;99.90
15113;DHT22;7657;50.140;7.076;2023-07-29T05:33:48;18.60;99.90
15113;DHT22;7657;50.140;7.076;2023-07-29T05:36:15;18.60;99.90
15113;DHT22;7657;50.140;7.076;2023-07-29T05:38:42;18.60;99.90
15113;DHT22;7657;50.140;7.076;2023-07-29T05:41:10;18.60;99.90
15113;DHT22;7657;50.140;7.076;2023-07-29T05:43:37;18.50;99.90
15113;DHT22;7657;50.140;7.076;2023-07-29T05:46:04;18.60;99.90
15113;DHT22;7657;50.140;7.076;2023-07-29T05:48:31;18.60;99.90
15113;DHT22;7657;50.140;7.076;2023-07-29T05:50:58;18.60;99.90
15113;DHT22;7657;50.140;7.076;2023-07-29T05:53:25;18.60;99.90
15113;DHT22;7657;50.140;7.076;2023-07-29T05:55:52;18.70;99.90
15113;DHT22;7657;50.140;7.076;2023-07-29T05:58:20;18.70;99.90
15113;DHT22;7657;50.140;7.076;2023-07-29T06:00:47;18.70;99.90
15113;DHT22;7657;50.140;7.076;2023-07-29T06:03:14;18.60;99.90
15113;DHT22;7657;50.140;7.076;2023-07-29T06:05:40;18.50;99.90
15113;DHT22;7657;50.140;7.076;2023-07-29T06:08:07;18.50;99.90
15113;DHT22;7657;50.140;7.076;2023-07-29T06:10:35;18.40;99.90
15113;DHT22;7657;50.140;7.076;2023-07-29T06:13:02;18.50;99.90
15113;DHT22;7657;50.140;7.076;2023-07-29T06:15:30;18.40;99.90
15113;DHT22;7657;50.140;7.076;2023-07-29T06:17:57;18.30;99.90
15113;DHT22;7657;50.140;7.076;2023-07-29T06:20:24;18.40;99.90
15113;DHT22;7657;50.140;7.076;2023-07-29T06:22:51;18.40;99.90
15113;DHT22;7657;50.140;7.076;2023-07-29T06:25:18;18.40;99.90
15113;DHT22;7657;50.140;7.076;2023-07-29T06:27:45;18.40;99.90
15113;DHT22;7657;50.140;7.076;2023-07-29T06:30:11;18.40;99.90
15113;DHT22;7657;50.140;7.076;2023-07-29T06:32:40;18.40;99.90
15113;DHT22;7657;50.140;7.076;2023-07-29T06:35:07;18.30;99.90
15113;DHT22;7657;50.140;7.076;2023-07-29T06:37:34;18.50;99.90
15113;DHT22;7657;50.140;7.076;2023-07-29T06:40:01;18.50;99.90
15113;DHT22;7657;50.140;7.076;2023-07-29T06:42:28;18.50;99.90
15113;DHT22;7657;50.140;7.076;2023-07-29T06:44:55;18.60;99.90
15113;DHT22;7657;50.140;7.076;2023-07-29T06:47:22;18.60;99.90
15113;DHT22;7657;50.140;7.076;2023-07-29T06:49:50;18.60;99.90
15113;DHT22;7657;50.140;7.076;2023-07-29T06:52:17;18.50;99.90
15113;DHT22;7657;50.140;7.076;2023-07-29T06:54:44;18.50;99.90
15113;DHT22;7657;50.140;7.076;2023-07-29T06:57:11;18.50;99.90
15113;DHT22;7657;50.140;7.076;2023-07-29T06:59:38;18.50;99.90
15113;DHT22;7657;50.140;7.076;2023-07-29T07:02:06;18.50;99.90
15113;DHT22;7657;50.140;7.076;2023-07-29T07:04:33;18.50;99.90
15113;DHT22;7657;50.140;7.076;2023-07-29T07:07:01;18.60;99.90
15113;DHT22;7657;50.140;7.076;2023-07-29T07:09:28;18.70;99.90
15113;DHT22;7657;50.140;7.076;2023-07-29T07:11:55;18.70;99.90
15113;DHT22;7657;50.140;7.076;2023-07-29T07:14:22;18.70;99.90
15113;DHT22;7657;50.140;7.076;2023-07-29T07:16:48;18.70;99.90
15113;DHT22;7657;50.140;7.076;2023-07-29T07:19:15;18.70;99.90
15113;DHT22;7657;50.140;7.076;2023-07-29T07:21:42;18.70;99.90
15113;DHT22;7657;50.140;7.076;2023-07-29T07:24:10;18.60;99.90
15113;DHT22;7657;50.140;7.076;2023-07-29T07:26:37;18.70;99.90
15113;DHT22;7657;50.140;7.076;2023-07-29T07:29:05;18.60;99.90
15113;DHT22;7657;50.140;7.076;2023-07-29T07:31:33;18.70;99.90
15113;DHT22;7657;50.140;7.076;2023-07-29T07:34:00;18.80;99.90
15113;DHT22;7657;50.140;7.076;2023-07-29T07:36:29;18.90;99.90
15113;DHT22;7657;50.140;7.076;2023-07-29T07:38:56;18.90;99.90
15113;DHT22;7657;50.140;7.076;2023-07-29T07:41:24;19.00;99.90
15113;DHT22;7657;50.140;7.076;2023-07-29T07:43:51;19.00;99.90
15113;DHT22;7657;50.140;7.076;2023-07-29T07:46:18;19.10;99.90
15113;DHT22;7657;50.140;7.076;2023-07-29T07:48:44;19.20;99.90
15113;DHT22;7657;50.140;7.076;2023-07-29T07:51:12;19.30;99.90
15113;DHT22;7657;50.140;7.076;2023-07-29T07:53:39;19.30;99.90
15113;DHT22;7657;50.140;7.076;2023-07-29T07:56:06;19.40;99.90
15113;DHT22;7657;50.140;7.076;2023-07-29T07:58:35;19.40;99.90
15113;DHT22;7657;50.140;7.076;2023-07-29T08:01:02;19.30;99.90
15113;DHT22;7657;50.140;7.076;2023-07-29T08:03:29;19.30;99.90
15113;DHT22;7657;50.140;7.076;2023-07-29T08:05:56;19.30;99.90
15113;DHT22;7657;50.140;7.076;2023-07-29T08:08:23;19.20;99.90
15113;DHT22;7657;50.140;7.076;2023-07-29T08:10:51;19.20;99.90
15113;DHT22;7657;50.140;7.076;2023-07-29T08:13:18;19.10;99.90
15113;DHT22;7657;50.140;7.076;2023-07-29T08:15:47;19.00;99.90
15113;DHT22;7657;50.140;7.076;2023-07-29T08:18:15;19.10;99.90
15113;DHT22;7657;50.140;7.076;2023-07-29T08:20:50;18.90;99.90
15113;DHT22;7657;50.140;7.076;2023-07-29T08:23:17;18.80;99.90
15113;DHT22;7657;50.140;7.076;2023-07-29T08:25:44;18.90;99.90
15113;DHT22;7657;50.140;7.076;2023-07-29T08:28:11;18.90;99.90
15113;DHT22;7657;50.140;7.076;2023-07-29T08:30:38;19.00;99.90
15113;DHT22;7657;50.140;7.076;2023-07-29T08:33:06;19.00;99.90
15113;DHT22;7657;50.140;7.076;2023-07-29T08:35:33;19.00;99.90
15113;DHT22;7657;50.140;7.076;2023-07-29T08:38:00;19.00;99.90
15113;DHT22;7657;50.140;7.076;2023-07-29T08:40:27;19.00;99.90
15113;DHT22;7657;50.140;7.076;2023-07-29T08:42:58;18.90;99.90
15113;DHT22;7657;50.140;7.076;2023-07-29T08:45:28;18.80;99.90
15113;DHT22;7657;50.140;7.076;2023-07-29T08:47:57;18.90;99.90
15113;DHT22;7657;50.140;7.076;2023-07-29T08:50:26;18.90;99.90
15113;DHT22;7657;50.140;7.076;2023-07-29T08:52:54;18.90;99.90
15113;DHT22;7657;50.140;7.076;2023-07-29T08:55:21;19.00;99.90
15113;DHT22;7657;50.140;7.076;2023-07-29T08:57:48;19.20;99.90
15113;DHT22;7657;50.140;7.076;2023-07-29T09:00:15;19.20;99.90
15113;DHT22;7657;50.140;7.076;2023-07-29T09:02:42;19.30;99.90
15113;DHT22;7657;50.140;7.076;2023-07-29T09:05:09;19.30;99.90
15113;DHT22;7657;50.140;7.076;2023-07-29T09:07:38;19.40;99.90
15113;DHT22;7657;50.140;7.076;2023-07-29T09:10:09;19.30;99.90
15113;DHT22;7657;50.140;7.076;2023-07-29T09:12:36;19.30;99.90
15113;DHT22;7657;50.140;7.076;2023-07-29T09:15:04;19.30;99.90
15113;DHT22;7657;50.140;7.076;2023-07-29T09:17:31;19.30;99.90
15113;DHT22;7657;50.140;7.076;2023-07-29T09:19:58;19.20;99.90
15113;DHT22;7657;50.140;7.076;2023-07-29T09:22:27;19.20;99.90
15113;DHT22;7657;50.140;7.076;2023-07-29T09:24:57;19.20;99.90
15113;DHT22;7657;50.140;7.076;2023-07-29T09:27:24;19.20;99.90
15113;DHT22;7657;50.140;7.076;2023-07-29T09:29:52;19.20;99.90
15113;DHT22;7657;50.140;7.076;2023-07-29T09:32:20;19.30;99.90
15113;DHT22;7657;50.140;7.076;2023-07-29T09:34:47;19.20;99.90
15113;DHT22;7657;50.140;7.076;2023-07-29T09:37:17;19.30;99.90
15113;DHT22;7657;50.140;7.076;2023-07-29T09:39:45;19.50;99.90
15113;DHT22;7657;50.140;7.076;2023-07-29T09:42:18;19.60;99.90
15113;DHT22;7657;50.140;7.076;2023-07-29T09:44:45;19.70;99.90
15113;DHT22;7657;50.140;7.076;2023-07-29T09:47:19;19.60;99.90
15113;DHT22;7657;50.140;7.076;2023-07-29T09:49:47;19.70;99.90
15113;DHT22;7657;50.140;7.076;2023-07-29T09:52:15;19.70;99.90
15113;DHT22;7657;50.140;7.076;2023-07-29T09:54:43;19.80;99.90
15113;DHT22;7657;50.140;7.076;2023-07-29T09:57:10;19.90;99.90
15113;DHT22;7657;50.140;7.076;2023-07-29T09:59:39;19.90;99.90
15113;DHT22;7657;50.140;7.076;2023-07-29T10:02:12;19.90;99.90
15113;DHT22;7657;50.140;7.076;2023-07-29T10:04:41;20.00;99.90
15113;DHT22;7657;50.140;7.076;2023-07-29T10:07:09;20.00;99.90
15113;DHT22;7657;50.140;7.076;2023-07-29T10:09:36;20.00;99.90
15113;DHT22;7657;50.140;7.076;2023-07-29T10:12:06;19.90;99.90
15113;DHT22;7657;50.140;7.076;2023-07-29T10:14:33;19.90;99.90
15113;DHT22;7657;50.140;7.076;2023-07-29T10:17:03;20.00;99.90
15113;DHT22;7657;50.140;7.076;2023-07-29T10:19:31;20.00;99.90
15113;DHT22;7657;50.140;7.076;2023-07-29T10:21:59;20.00;99.90
15113;DHT22;7657;50.140;7.076;2023-07-29T10:24:30;20.10;99.90
15113;DHT22;7657;50.140;7.076;2023-07-29T10:26:59;20.20;99.90
15113;DHT22;7657;50.140;7.076;2023-07-29T10:29:30;20.20;99.90
15113;DHT22;7657;50.140;7.076;2023-07-29T10:31:58;20.20;99.90
15113;DHT22;7657;50.140;7.076;2023-07-29T10:34:30;20.10;99.90
15113;DHT22;7657;50.140;7.076;2023-07-29T10:36:57;20.20;99.90
15113;DHT22;7657;50.140;7.076;2023-07-29T10:39:24;20.20;99.90
15113;DHT22;7657;50.140;7.076;2023-07-29T10:41:55;20.30;99.90
15113;DHT22;7657;50.140;7.076;2023-07-29T10:44:47;20.50;99.90
15113;DHT22;7657;50.140;7.076;2023-07-29T10:47:20;20.60;99.90
15113;DHT22;7657;50.140;7.076;2023-07-29T10:49:50;20.70;99.90
15113;DHT22;7657;50.140;7.076;2023-07-29T10:52:29;20.80;99.90
15113;DHT22;7657;50.140;7.076;2023-07-29T10:54:56;20.90;99.90
15113;DHT22;7657;50.140;7.076;2023-07-29T10:57:31;21.00;99.90
15113;DHT22;7657;50.140;7.076;2023-07-29T10:59:59;21.10;99.90
15113;DHT22;7657;50.140;7.076;2023-07-29T11:02:31;21.10;99.90
15113;DHT22;7657;50.140;7.076;2023-07-29T11:05:05;21.10;99.90
15113;DHT22;7657;50.140;7.076;2023-07-29T11:07:43;21.10;99.90
15113;DHT22;7657;50.140;7.076;2023-07-29T11:10:11;21.30;99.90
15113;DHT22;7657;50.140;7.076;2023-07-29T11:12:43;21.30;99.90
15113;DHT22;7657;50.140;7.076;2023-07-29T11:15:16;21.50;99.90
15113;DHT22;7657;50.140;7.076;2023-07-29T11:17:45;21.60;99.90
15113;DHT22;7657;50.140;7.076;2023-07-29T11:20:15;21.50;99.90
15113;DHT22;7657;50.140;7.076;2023-07-29T11:22:42;21.50;99.90
15113;DHT22;7657;50.140;7.076;2023-07-29T11:25:11;21.50;99.90
15113;DHT22;7657;50.140;7.076;2023-07-29T11:27:38;21.40;99.90
15113;DHT22;7657;50.140;7.076;2023-07-29T11:30:07;21.40;99.90
15113;DHT22;7657;50.140;7.076;2023-07-29T11:32:35;21.50;99.90
15113;DHT22;7657;50.140;7.076;2023-07-29T11:35:03;21.60;99.90
15113;DHT22;7657;50.140;7.076;2023-07-29T11:37:33;21.70;99.90
15113;DHT22;7657;50.140;7.076;2023-07-29T11:40:00;21.60;99.90
15113;DHT22;7657;50.140;7.076;2023-07-29T11:42:27;21.60;99.90
15113;DHT22;7657;50.140;7.076;2023-07-29T11:44:56;21.50;99.90
15113;DHT22;7657;50.140;7.076;2023-07-29T11:47:23;21.40;99.90
15113;DHT22;7657;50.140;7.076;2023-07-29T11:49:50;21.50;99.90
15113;DHT22;7657;50.140;7.076;2023-07-29T11:52:18;21.40;99.90
15113;DHT22;7657;50.140;7.076;2023-07-29T11:54:48;21.60;99.90
15113;DHT22;7657;50.140;7.076;2023-07-29T11:57:15;21.60;99.90
15113;DHT22;7657;50.140;7.076;2023-07-29T11:59:44;21.60;99.90
15113;DHT22;7657;50.140;7.076;2023-07-29T12:02:14;21.60;99.90
15113;DHT22;7657;50.140;7.076;2023-07-29T12:04:43;21.70;99.90
15113;DHT22;7657;50.140;7.076;2023-07-29T12:07:10;21.80;99.90
15113;DHT22;7657;50.140;7.076;2023-07-29T12:09:39;21.80;99.90
15113;DHT22;7657;50.140;7.076;2023-07-29T12:12:08;21.70;99.90
15113;DHT22;7657;50.140;7.076;2023-07-29T12:14:35;21.70;99.90
15113;DHT22;7657;50.140;7.076;2023-07-29T12:17:03;21.70;99.90
15113;DHT22;7657;50.140;7.076;2023-07-29T12:19:35;21.90;99.90
15113;DHT22;7657;50.140;7.076;2023-07-29T12:22:03;22.00;99.90
15113;DHT22;7657;50.140;7.076;2023-07-29T12:24:31;22.00;99.90
15113;DHT22;7657;50.140;7.076;2023-07-29T12:26:58;22.10;99.90
15113;DHT22;7657;50.140;7.076;2023-07-29T12:29:27;22.00;99.90
15113;DHT22;7657;50.140;7.076;2023-07-29T12:31:58;22.00;99.90
15113;DHT22;7657;50.140;7.076;2023-07-29T12:34:26;22.10;99.90
15113;DHT22;7657;50.140;7.076;2023-07-29T12:36:54;22.30;99.90
15113;DHT22;7657;50.140;7.076;2023-07-29T12:39:23;22.30;99.90
15113;DHT22;7657;50.140;7.076;2023-07-29T12:41:52;22.40;99.90
15113;DHT22;7657;50.140;7.076;2023-07-29T12:44:19;22.50;99.90
15113;DHT22;7657;50.140;7.076;2023-07-29T12:46:47;22.60;99.90
15113;DHT22;7657;50.140;7.076;2023-07-29T12:49:14;22.70;99.90
15113;DHT22;7657;50.140;7.076;2023-07-29T12:51:41;22.80;99.90
15113;DHT22;7657;50.140;7.076;2023-07-29T12:54:08;22.90;99.90
15113;DHT22;7657;50.140;7.076;2023-07-29T12:56:35;23.00;99.90
15113;DHT22;7657;50.140;7.076;2023-07-29T12:59:02;23.10;99.90
15113;DHT22;7657;50.140;7.076;2023-07-29T13:01:29;23.20;99.90
15113;DHT22;7657;50.140;7.076;2023-07-29T13:03:58;23.50;99.90
15113;DHT22;7657;50.140;7.076;2023-07-29T13:06:25;23.50;99.90
15113;DHT22;7657;50.140;7.076;2023-07-29T13:08:52;23.70;99.90
15113;DHT22;7657;50.140;7.076;2023-07-29T13:11:19;23.80;99.90
15113;DHT22;7657;50.140;7.076;2023-07-29T13:13:45;23.80;99.90
15113;DHT22;7657;50.140;7.076;2023-07-29T13:16:12;23.70;99.90
15113;DHT22;7657;50.140;7.076;2023-07-29T13:18:39;23.90;99.90
15113;DHT22;7657;50.140;7.076;2023-07-29T13:21:08;23.90;99.90
15113;DHT22;7657;50.140;7.076;2023-07-29T13:23:35;24.20;99.90
15113;DHT22;7657;50.140;7.076;2023-07-29T13:26:02;24.10;99.90
15113;DHT22;7657;50.140;7.076;2023-07-29T13:28:29;24.10;99.90
15113;DHT22;7657;50.140;7.076;2023-07-29T13:30:56;24.30;99.90
15113;DHT22;7657;50.140;7.076;2023-07-29T13:33:23;24.40;99.90
15113;DHT22;7657;50.140;7.076;2023-07-29T13:35:49;24.40;99.90
15113;DHT22;7657;50.140;7.076;2023-07-29T13:38:18;24.60;99.90
15113;DHT22;7657;50.140;7.076;2023-07-29T13:40:45;24.80;99.90
15113;DHT22;7657;50.140;7.076;2023-07-29T13:43:13;24.90;99.90
15113;DHT22;7657;50.140;7.076;2023-07-29T13:45:40;25.00;99.90
15113;DHT22;7657;50.140;7.076;2023-07-29T13:48:07;25.00;99.90
15113;DHT22;7657;50.140;7.076;2023-07-29T13:50:34;25.10;99.90
15113;DHT22;7657;50.140;7.076;2023-07-29T13:53:01;25.10;99.90
15113;DHT22;7657;50.140;7.076;2023-07-29T13:55:29;24.70;99.90
15113;DHT22;7657;50.140;7.076;2023-07-29T13:57:56;24.60;99.90
15113;DHT22;7657;50.140;7.076;2023-07-29T14:00:23;24.60;99.90
15113;DHT22;7657;50.140;7.076;2023-07-29T14:02:50;24.70;99.90
15113;DHT22;7657;50.140;7.076;2023-07-29T14:05:17;25.10;99.90
15113;DHT22;7657;50.140;7.076;2023-07-29T14:07:43;25.60;99.90
15113;DHT22;7657;50.140;7.076;2023-07-29T14:10:10;25.80;99.90
15113;DHT22;7657;50.140;7.076;2023-07-29T14:12:38;25.80;99.90
15113;DHT22;7657;50.140;7.076;2023-07-29T14:15:07;25.80;99.90
15113;DHT22;7657;50.140;7.076;2023-07-29T14:17:34;25.80;99.90
15113;DHT22;7657;50.140;7.076;2023-07-29T14:20:01;25.90;99.90
15113;DHT22;7657;50.140;7.076;2023-07-29T14:22:28;26.00;99.90
15113;DHT22;7657;50.140;7.076;2023-07-29T14:24:55;26.10;99.90
15113;DHT22;7657;50.140;7.076;2023-07-29T14:27:22;26.50;99.90
15113;DHT22;7657;50.140;7.076;2023-07-29T14:29:50;26.70;99.90
15113;DHT22;7657;50.140;7.076;2023-07-29T14:32:17;27.00;99.90
15113;DHT22;7657;50.140;7.076;2023-07-29T14:34:44;26.60;99.90
15113;DHT22;7657;50.140;7.076;2023-07-29T14:37:11;26.50;99.90
15113;DHT22;7657;50.140;7.076;2023-07-29T14:39:38;26.40;99.90
15113;DHT22;7657;50.140;7.076;2023-07-29T14:42:05;26.30;99.90
15113;DHT22;7657;50.140;7.076;2023-07-29T14:44:33;25.90;99.90
15113;DHT22;7657;50.140;7.076;2023-07-29T14:47:01;25.70;99.90
15113;DHT22;7657;50.140;7.076;2023-07-29T14:49:28;25.90;99.90
15113;DHT22;7657;50.140;7.076;2023-07-29T14:51:55;25.80;99.90
15113;DHT22;7657;50.140;7.076;2023-07-29T14:54:22;26.10;99.90
15113;DHT22;7657;50.140;7.076;2023-07-29T14:56:49;26.00;99.90
15113;DHT22;7657;50.140;7.076;2023-07-29T14:59:16;26.00;99.90
15113;DHT22;7657;50.140;7.076;2023-07-29T15:01:43;26.00;99.90
15113;DHT22;7657;50.140;7.076;2023-07-29T15:04:11;25.70;99.90
15113;DHT22;7657;50.140;7.076;2023-07-29T15:06:38;25.70;99.90
15113;DHT22;7657;50.140;7.076;2023-07-29T15:09:05;25.80;99.90
15113;DHT22;7657;50.140;7.076;2023-07-29T15:11:32;25.60;99.90
15113;DHT22;7657;50.140;7.076;2023-07-29T15:13:59;26.10;99.90
15113;DHT22;7657;50.140;7.076;2023-07-29T15:16:30;26.50;99.90
15113;DHT22;7657;50.140;7.076;2023-07-29T15:18:58;27.10;99.90
15113;DHT22;7657;50.140;7.076;2023-07-29T15:21:26;26.70;99.90
15113;DHT22;7657;50.140;7.076;2023-07-29T15:23:53;27.00;99.90
15113;DHT22;7657;50.140;7.076;2023-07-29T15:26:20;27.30;99.90
15113;DHT22;7657;50.140;7.076;2023-07-29T15:28:47;27.40;99.90
15113;DHT22;7657;50.140;7.076;2023-07-29T15:31:14;27.60;99.90
15113;DHT22;7657;50.140;7.076;2023-07-29T15:33:41;27.00;99.90
15113;DHT22;7657;50.140;7.076;2023-07-29T15:36:08;27.00;99.90
15113;DHT22;7657;50.140;7.076;2023-07-29T15:38:37;27.20;99.90
15113;DHT22;7657;50.140;7.076;2023-07-29T15:41:03;27.40;99.90
15113;DHT22;7657;50.140;7.076;2023-07-29T15:43:30;27.60;99.90
15113;DHT22;7657;50.140;7.076;2023-07-29T15:45:57;27.90;99.90
15113;DHT22;7657;50.140;7.076;2023-07-29T15:48:24;27.90;99.90